sensor_id;sensor_type;location;lat;lon;timestamp;P1;durP1;ratioP1;P2;durP2;ratioP2
41635;SDS011;27623;51.966;4.602;2023-07-20T00:01:17;6.90;;;3.70;;
41635;SDS011;27623;51.966;4.602;2023-07-20T00:03:44;7.75;;;3.55;;
41635;SDS011;27623;51.966;4.602;2023-07-20T00:06:20;8.57;;;3.78;;
41635;SDS011;27623;51.966;4.602;2023-07-20T00:08:52;8.10;;;4.30;;
41635;SDS011;27623;51.966;4.602;2023-07-20T00:11:19;7.45;;;3.78;;
41635;SDS011;27623;51.966;4.602;2023-07-20T00:13:46;11.32;;;3.90;;
41635;SDS011;27623;51.966;4.602;2023-07-20T00:16:14;7.88;;;4.13;;
41635;SDS011;27623;51.966;4.602;2023-07-20T00:18:42;8.40;;;4.20;;
41635;SDS011;27623;51.966;4.602;2023-07-20T00:21:07;10.25;;;4.25;;
41635;SDS011;27623;51.966;4.602;2023-07-20T00:23:33;8.60;;;4.97;;
41635;SDS011;27623;51.966;4.602;2023-07-20T00:25:58;11.13;;;4.95;;
41635;SDS011;27623;51.966;4.602;2023-07-20T00:28:23;8.30;;;5.22;;
41635;SDS011;27623;51.966;4.602;2023-07-20T00:30:49;11.13;;;5.70;;
41635;SDS011;27623;51.966;4.602;2023-07-20T00:33:19;11.18;;;6.00;;
41635;SDS011;27623;51.966;4.602;2023-07-20T00:35:44;8.20;;;5.30;;
41635;SDS011;27623;51.966;4.602;2023-07-20T00:38:10;7.25;;;4.60;;
41635;SDS011;27623;51.966;4.602;2023-07-20T00:40:36;5.70;;;3.80;;
41635;SDS011;27623;51.966;4.602;2023-07-20T00:43:05;4.88;;;3.25;;
41635;SDS011;27623;51.966;4.602;2023-07-20T00:45:32;6.13;;;2.92;;
41635;SDS011;27623;51.966;4.602;2023-07-20T00:47:58;3.33;;;2.10;;
41635;SDS011;27623;51.966;4.602;2023-07-20T00:50:24;3.67;;;2.08;;
41635;SDS011;27623;51.966;4.602;2023-07-20T00:52:51;2.33;;;1.45;;
41635;SDS011;27623;51.966;4.602;2023-07-20T00:55:19;2.33;;;1.50;;
41635;SDS011;27623;51.966;4.602;2023-07-20T00:57:44;3.60;;;1.60;;
41635;SDS011;27623;51.966;4.602;2023-07-20T01:00:10;4.00;;;1.40;;
41635;SDS011;27623;51.966;4.602;2023-07-20T01:02:36;3.88;;;1.40;;
41635;SDS011;27623;51.966;4.602;2023-07-20T01:05:02;2.40;;;1.20;;
41635;SDS011;27623;51.966;4.602;2023-07-20T01:12:57;4.00;;;1.65;;
41635;SDS011;27623;51.966;4.602;2023-07-20T01:15:22;3.17;;;1.48;;
41635;SDS011;27623;51.966;4.602;2023-07-20T01:17:48;2.38;;;1.40;;
41635;SDS011;27623;51.966;4.602;2023-07-20T01:20:14;2.65;;;1.30;;
41635;SDS011;27623;51.966;4.602;2023-07-20T01:25:26;4.43;;;1.58;;
41635;SDS011;27623;51.966;4.602;2023-07-20T01:30:51;2.97;;;1.73;;
41635;SDS011;27623;51.966;4.602;2023-07-20T01:33:24;4.38;;;1.85;;
41635;SDS011;27623;51.966;4.602;2023-07-20T01:35:55;4.22;;;1.50;;
41635;SDS011;27623;51.966;4.602;2023-07-20T01:38:25;3.88;;;1.88;;
41635;SDS011;27623;51.966;4.602;2023-07-20T01:40:53;2.10;;;1.33;;
41635;SDS011;27623;51.966;4.602;2023-07-20T01:43:18;4.00;;;1.88;;
41635;SDS011;27623;51.966;4.602;2023-07-20T01:45:44;2.75;;;1.65;;
41635;SDS011;27623;51.966;4.602;2023-07-20T01:48:09;2.65;;;1.70;;
41635;SDS011;27623;51.966;4.602;2023-07-20T01:50:35;3.10;;;1.70;;
41635;SDS011;27623;51.966;4.602;2023-07-20T01:53:01;4.53;;;1.88;;
41635;SDS011;27623;51.966;4.602;2023-07-20T01:55:27;3.40;;;1.90;;
41635;SDS011;27623;51.966;4.602;2023-07-20T01:57:52;3.42;;;1.60;;
41635;SDS011;27623;51.966;4.602;2023-07-20T02:00:20;3.53;;;1.90;;
41635;SDS011;27623;51.966;4.602;2023-07-20T02:02:49;3.13;;;1.85;;
41635;SDS011;27623;51.966;4.602;2023-07-20T02:05:15;3.63;;;1.80;;
41635;SDS011;27623;51.966;4.602;2023-07-20T02:07:41;2.88;;;1.60;;
41635;SDS011;27623;51.966;4.602;2023-07-20T02:10:06;5.13;;;1.63;;
41635;SDS011;27623;51.966;4.602;2023-07-20T02:12:32;4.47;;;1.70;;
41635;SDS011;27623;51.966;4.602;2023-07-20T02:14:57;4.18;;;2.08;;
41635;SDS011;27623;51.966;4.602;2023-07-20T02:17:22;2.80;;;1.80;;
41635;SDS011;27623;51.966;4.602;2023-07-20T02:19:50;5.35;;;1.73;;
41635;SDS011;27623;51.966;4.602;2023-07-20T02:22:19;3.20;;;1.70;;
41635;SDS011;27623;51.966;4.602;2023-07-20T02:24:45;3.75;;;2.00;;
41635;SDS011;27623;51.966;4.602;2023-07-20T02:27:11;5.40;;;2.20;;
41635;SDS011;27623;51.966;4.602;2023-07-20T02:29:36;3.40;;;2.08;;
41635;SDS011;27623;51.966;4.602;2023-07-20T02:32:02;3.53;;;1.80;;
41635;SDS011;27623;51.966;4.602;2023-07-20T02:34:28;2.85;;;1.63;;
41635;SDS011;27623;51.966;4.602;2023-07-20T02:36:55;2.90;;;2.05;;
41635;SDS011;27623;51.966;4.602;2023-07-20T02:39:22;3.85;;;2.28;;
41635;SDS011;27623;51.966;4.602;2023-07-20T02:41:48;4.88;;;2.03;;
41635;SDS011;27623;51.966;4.602;2023-07-20T02:44:18;3.67;;;2.17;;
41635;SDS011;27623;51.966;4.602;2023-07-20T02:46:43;4.10;;;1.95;;
41635;SDS011;27623;51.966;4.602;2023-07-20T02:49:08;3.67;;;2.05;;
41635;SDS011;27623;51.966;4.602;2023-07-20T02:51:34;3.83;;;1.90;;
41635;SDS011;27623;51.966;4.602;2023-07-20T02:53:59;3.35;;;2.30;;
41635;SDS011;27623;51.966;4.602;2023-07-20T02:56:25;5.35;;;1.80;;
41635;SDS011;27623;51.966;4.602;2023-07-20T02:58:50;4.10;;;2.08;;
41635;SDS011;27623;51.966;4.602;2023-07-20T03:01:16;2.85;;;1.77;;
41635;SDS011;27623;51.966;4.602;2023-07-20T03:03:42;2.70;;;1.75;;
41635;SDS011;27623;51.966;4.602;2023-07-20T03:06:10;3.63;;;1.98;;
41635;SDS011;27623;51.966;4.602;2023-07-20T03:08:36;4.40;;;2.50;;
41635;SDS011;27623;51.966;4.602;2023-07-20T03:11:02;5.50;;;2.72;;
41635;SDS011;27623;51.966;4.602;2023-07-20T03:13:27;5.05;;;2.95;;
41635;SDS011;27623;51.966;4.602;2023-07-20T03:15:53;5.25;;;2.92;;
41635;SDS011;27623;51.966;4.602;2023-07-20T03:18:18;3.85;;;2.83;;
41635;SDS011;27623;51.966;4.602;2023-07-20T03:20:44;3.70;;;2.28;;
41635;SDS011;27623;51.966;4.602;2023-07-20T03:23:09;3.80;;;2.30;;
41635;SDS011;27623;51.966;4.602;2023-07-20T03:25:35;5.18;;;2.38;;
41635;SDS011;27623;51.966;4.602;2023-07-20T03:28:02;4.13;;;2.35;;
41635;SDS011;27623;51.966;4.602;2023-07-20T03:30:28;4.43;;;2.28;;
41635;SDS011;27623;51.966;4.602;2023-07-20T03:32:53;3.47;;;1.90;;
41635;SDS011;27623;51.966;4.602;2023-07-20T03:35:18;3.45;;;2.13;;
41635;SDS011;27623;51.966;4.602;2023-07-20T03:37:46;5.82;;;2.42;;
41635;SDS011;27623;51.966;4.602;2023-07-20T03:40:14;4.13;;;2.10;;
41635;SDS011;27623;51.966;4.602;2023-07-20T03:42:39;3.03;;;2.13;;
41635;SDS011;27623;51.966;4.602;2023-07-20T03:45:05;4.38;;;1.90;;
41635;SDS011;27623;51.966;4.602;2023-07-20T03:47:31;6.22;;;2.47;;
41635;SDS011;27623;51.966;4.602;2023-07-20T03:49:56;7.03;;;2.53;;
41635;SDS011;27623;51.966;4.602;2023-07-20T03:52:22;3.83;;;2.05;;
41635;SDS011;27623;51.966;4.602;2023-07-20T03:54:48;3.58;;;2.05;;
41635;SDS011;27623;51.966;4.602;2023-07-20T03:57:13;4.28;;;2.25;;
41635;SDS011;27623;51.966;4.602;2023-07-20T03:59:39;5.00;;;2.50;;
41635;SDS011;27623;51.966;4.602;2023-07-20T04:02:04;4.53;;;2.65;;
41635;SDS011;27623;51.966;4.602;2023-07-20T04:04:30;4.65;;;2.30;;
41635;SDS011;27623;51.966;4.602;2023-07-20T04:06:56;3.33;;;2.30;;
41635;SDS011;27623;51.966;4.602;2023-07-20T04:09:21;3.10;;;1.92;;
41635;SDS011;27623;51.966;4.602;2023-07-20T04:11:46;3.88;;;2.20;;
41635;SDS011;27623;51.966;4.602;2023-07-20T04:14:12;5.22;;;2.55;;
41635;SDS011;27623;51.966;4.602;2023-07-20T04:16:39;2.83;;;1.92;;
41635;SDS011;27623;51.966;4.602;2023-07-20T04:19:05;2.55;;;1.80;;
41635;SDS011;27623;51.966;4.602;2023-07-20T04:21:30;3.58;;;1.80;;
41635;SDS011;27623;51.966;4.602;2023-07-20T04:23:58;2.40;;;1.52;;
41635;SDS011;27623;51.966;4.602;2023-07-20T04:26:26;3.22;;;1.70;;
41635;SDS011;27623;51.966;4.602;2023-07-20T04:28:51;4.32;;;2.05;;
41635;SDS011;27623;51.966;4.602;2023-07-20T04:31:17;3.63;;;2.20;;
41635;SDS011;27623;51.966;4.602;2023-07-20T04:33:43;2.80;;;1.85;;
41635;SDS011;27623;51.966;4.602;2023-07-20T04:36:08;4.90;;;1.80;;
41635;SDS011;27623;51.966;4.602;2023-07-20T04:38:34;2.90;;;1.88;;
41635;SDS011;27623;51.966;4.602;2023-07-20T04:40:59;4.97;;;1.88;;
41635;SDS011;27623;51.966;4.602;2023-07-20T04:43:25;3.25;;;1.67;;
41635;SDS011;27623;51.966;4.602;2023-07-20T04:45:51;3.33;;;1.65;;
41635;SDS011;27623;51.966;4.602;2023-07-20T04:48:19;3.65;;;2.00;;
41635;SDS011;27623;51.966;4.602;2023-07-20T04:50:45;4.15;;;1.90;;
41635;SDS011;27623;51.966;4.602;2023-07-20T04:53:11;2.30;;;1.70;;
41635;SDS011;27623;51.966;4.602;2023-07-20T04:55:37;4.45;;;1.75;;
41635;SDS011;27623;51.966;4.602;2023-07-20T04:58:04;3.78;;;1.92;;
41635;SDS011;27623;51.966;4.602;2023-07-20T05:00:30;4.00;;;1.52;;
41635;SDS011;27623;51.966;4.602;2023-07-20T05:02:56;6.10;;;2.05;;
41635;SDS011;27623;51.966;4.602;2023-07-20T05:05:21;3.28;;;1.50;;
41635;SDS011;27623;51.966;4.602;2023-07-20T05:07:47;3.38;;;1.85;;
41635;SDS011;27623;51.966;4.602;2023-07-20T05:10:12;4.05;;;1.75;;
41635;SDS011;27623;51.966;4.602;2023-07-20T05:12:38;3.17;;;1.73;;
41635;SDS011;27623;51.966;4.602;2023-07-20T05:15:04;5.05;;;1.75;;
41635;SDS011;27623;51.966;4.602;2023-07-20T05:17:32;4.22;;;1.98;;
41635;SDS011;27623;51.966;4.602;2023-07-20T05:19:58;4.90;;;2.13;;
41635;SDS011;27623;51.966;4.602;2023-07-20T05:22:23;2.78;;;1.63;;
41635;SDS011;27623;51.966;4.602;2023-07-20T05:24:49;3.25;;;1.90;;
41635;SDS011;27623;51.966;4.602;2023-07-20T05:27:15;5.13;;;2.08;;
41635;SDS011;27623;51.966;4.602;2023-07-20T05:29:44;4.22;;;1.67;;
41635;SDS011;27623;51.966;4.602;2023-07-20T05:32:10;3.63;;;1.85;;
41635;SDS011;27623;51.966;4.602;2023-07-20T05:34:36;3.80;;;1.90;;
41635;SDS011;27623;51.966;4.602;2023-07-20T05:37:03;7.25;;;2.40;;
41635;SDS011;27623;51.966;4.602;2023-07-20T05:39:29;4.25;;;2.13;;
41635;SDS011;27623;51.966;4.602;2023-07-20T05:41:54;3.63;;;1.70;;
41635;SDS011;27623;51.966;4.602;2023-07-20T05:44:20;3.22;;;1.45;;
41635;SDS011;27623;51.966;4.602;2023-07-20T05:46:45;2.35;;;1.33;;
41635;SDS011;27623;51.966;4.602;2023-07-20T05:49:10;3.17;;;1.50;;
41635;SDS011;27623;51.966;4.602;2023-07-20T05:51:36;5.53;;;1.58;;
41635;SDS011;27623;51.966;4.602;2023-07-20T05:54:01;2.65;;;1.85;;
41635;SDS011;27623;51.966;4.602;2023-07-20T05:56:27;2.33;;;1.50;;
41635;SDS011;27623;51.966;4.602;2023-07-20T05:58:52;3.33;;;1.30;;
41635;SDS011;27623;51.966;4.602;2023-07-20T06:01:19;4.60;;;1.20;;
41635;SDS011;27623;51.966;4.602;2023-07-20T06:03:47;3.38;;;1.60;;
41635;SDS011;27623;51.966;4.602;2023-07-20T06:06:12;2.97;;;1.52;;
41635;SDS011;27623;51.966;4.602;2023-07-20T06:08:38;3.75;;;1.38;;
41635;SDS011;27623;51.966;4.602;2023-07-20T06:11:03;3.08;;;1.35;;
41635;SDS011;27623;51.966;4.602;2023-07-20T06:13:29;2.95;;;1.00;;
41635;SDS011;27623;51.966;4.602;2023-07-20T06:15:54;3.13;;;1.17;;
41635;SDS011;27623;51.966;4.602;2023-07-20T06:18:21;2.00;;;1.02;;
41635;SDS011;27623;51.966;4.602;2023-07-20T06:20:50;3.35;;;1.15;;
41635;SDS011;27623;51.966;4.602;2023-07-20T06:23:18;1.00;;;0.65;;
41635;SDS011;27623;51.966;4.602;2023-07-20T06:25:44;1.77;;;0.90;;
41635;SDS011;27623;51.966;4.602;2023-07-20T06:28:09;1.80;;;0.77;;
41635;SDS011;27623;51.966;4.602;2023-07-20T06:30:34;3.25;;;1.20;;
41635;SDS011;27623;51.966;4.602;2023-07-20T06:33:02;1.88;;;0.90;;
41635;SDS011;27623;51.966;4.602;2023-07-20T06:35:27;5.10;;;0.90;;
41635;SDS011;27623;51.966;4.602;2023-07-20T06:37:53;2.75;;;0.82;;
41635;SDS011;27623;51.966;4.602;2023-07-20T06:40:18;1.65;;;0.93;;
41635;SDS011;27623;51.966;4.602;2023-07-20T06:42:44;1.95;;;0.73;;
41635;SDS011;27623;51.966;4.602;2023-07-20T06:45:09;4.28;;;1.00;;
41635;SDS011;27623;51.966;4.602;2023-07-20T06:47:35;4.30;;;0.75;;
41635;SDS011;27623;51.966;4.602;2023-07-20T06:50:02;1.58;;;0.93;;
41635;SDS011;27623;51.966;4.602;2023-07-20T06:52:28;2.65;;;1.08;;
41635;SDS011;27623;51.966;4.602;2023-07-20T06:54:56;3.28;;;0.77;;
41635;SDS011;27623;51.966;4.602;2023-07-20T06:57:21;2.30;;;0.70;;
41635;SDS011;27623;51.966;4.602;2023-07-20T06:59:47;1.45;;;0.80;;
41635;SDS011;27623;51.966;4.602;2023-07-20T07:02:12;3.33;;;0.90;;
41635;SDS011;27623;51.966;4.602;2023-07-20T07:04:38;1.55;;;0.77;;
41635;SDS011;27623;51.966;4.602;2023-07-20T07:07:03;1.35;;;0.63;;
41635;SDS011;27623;51.966;4.602;2023-07-20T07:09:31;1.52;;;0.80;;
41635;SDS011;27623;51.966;4.602;2023-07-20T07:11:59;2.03;;;0.77;;
41635;SDS011;27623;51.966;4.602;2023-07-20T07:14:27;4.80;;;1.00;;
41635;SDS011;27623;51.966;4.602;2023-07-20T07:16:52;1.75;;;0.90;;
41635;SDS011;27623;51.966;4.602;2023-07-20T07:19:18;1.63;;;0.95;;
41635;SDS011;27623;51.966;4.602;2023-07-20T07:21:43;2.55;;;1.40;;
41635;SDS011;27623;51.966;4.602;2023-07-20T07:24:08;3.40;;;1.05;;
41635;SDS011;27623;51.966;4.602;2023-07-20T07:26:37;4.28;;;0.95;;
41635;SDS011;27623;51.966;4.602;2023-07-20T07:29:02;2.28;;;1.05;;
41635;SDS011;27623;51.966;4.602;2023-07-20T07:31:28;2.50;;;1.17;;
41635;SDS011;27623;51.966;4.602;2023-07-20T07:33:55;2.88;;;0.80;;
41635;SDS011;27623;51.966;4.602;2023-07-20T07:36:20;4.60;;;1.08;;
41635;SDS011;27623;51.966;4.602;2023-07-20T07:38:46;2.30;;;0.80;;
41635;SDS011;27623;51.966;4.602;2023-07-20T07:41:11;1.73;;;0.80;;
41635;SDS011;27623;51.966;4.602;2023-07-20T07:43:37;2.40;;;0.80;;
41635;SDS011;27623;51.966;4.602;2023-07-20T07:46:03;2.22;;;1.00;;
41635;SDS011;27623;51.966;4.602;2023-07-20T07:48:33;5.20;;;1.30;;
41635;SDS011;27623;51.966;4.602;2023-07-20T07:50:58;2.97;;;1.00;;
41635;SDS011;27623;51.966;4.602;2023-07-20T07:53:23;1.77;;;0.77;;
41635;SDS011;27623;51.966;4.602;2023-07-20T07:55:51;2.10;;;0.80;;
41635;SDS011;27623;51.966;4.602;2023-07-20T07:58:16;1.77;;;0.65;;
41635;SDS011;27623;51.966;4.602;2023-07-20T08:00:42;2.38;;;1.00;;
41635;SDS011;27623;51.966;4.602;2023-07-20T08:03:09;3.65;;;1.05;;
41635;SDS011;27623;51.966;4.602;2023-07-20T08:05:35;3.20;;;1.20;;
41635;SDS011;27623;51.966;4.602;2023-07-20T08:08:01;3.55;;;1.90;;
41635;SDS011;27623;51.966;4.602;2023-07-20T08:10:28;4.75;;;2.60;;
41635;SDS011;27623;51.966;4.602;2023-07-20T08:12:54;6.97;;;3.22;;
41635;SDS011;27623;51.966;4.602;2023-07-20T08:15:19;2.28;;;1.13;;
41635;SDS011;27623;51.966;4.602;2023-07-20T08:17:45;3.47;;;1.13;;
41635;SDS011;27623;51.966;4.602;2023-07-20T08:20:12;3.05;;;1.08;;
41635;SDS011;27623;51.966;4.602;2023-07-20T08:22:38;5.00;;;1.20;;
41635;SDS011;27623;51.966;4.602;2023-07-20T08:25:05;4.25;;;1.13;;
41635;SDS011;27623;51.966;4.602;2023-07-20T08:27:31;4.95;;;1.27;;
41635;SDS011;27623;51.966;4.602;2023-07-20T08:29:56;4.22;;;1.02;;
41635;SDS011;27623;51.966;4.602;2023-07-20T08:32:22;1.83;;;1.02;;
41635;SDS011;27623;51.966;4.602;2023-07-20T08:34:47;5.15;;;2.17;;
41635;SDS011;27623;51.966;4.602;2023-07-20T08:37:13;2.78;;;1.27;;
41635;SDS011;27623;51.966;4.602;2023-07-20T08:39:38;2.08;;;1.10;;
41635;SDS011;27623;51.966;4.602;2023-07-20T08:42:04;2.00;;;0.80;;
41635;SDS011;27623;51.966;4.602;2023-07-20T08:44:34;4.13;;;0.63;;
41635;SDS011;27623;51.966;4.602;2023-07-20T08:47:01;5.18;;;2.30;;
41635;SDS011;27623;51.966;4.602;2023-07-20T08:49:28;2.83;;;1.50;;
41635;SDS011;27623;51.966;4.602;2023-07-20T08:51:58;5.70;;;0.80;;
41635;SDS011;27623;51.966;4.602;2023-07-20T08:54:26;2.90;;;0.88;;
41635;SDS011;27623;51.966;4.602;2023-07-20T08:56:54;5.05;;;0.70;;
41635;SDS011;27623;51.966;4.602;2023-07-20T08:59:22;2.67;;;0.63;;
41635;SDS011;27623;51.966;4.602;2023-07-20T09:01:49;2.30;;;0.90;;
41635;SDS011;27623;51.966;4.602;2023-07-20T09:04:17;2.05;;;0.80;;
41635;SDS011;27623;51.966;4.602;2023-07-20T09:06:43;3.10;;;1.00;;
41635;SDS011;27623;51.966;4.602;2023-07-20T09:09:08;4.88;;;1.10;;
41635;SDS011;27623;51.966;4.602;2023-07-20T09:11:33;1.83;;;0.77;;
41635;SDS011;27623;51.966;4.602;2023-07-20T09:14:05;3.97;;;0.93;;
41635;SDS011;27623;51.966;4.602;2023-07-20T09:16:31;2.20;;;0.70;;
41635;SDS011;27623;51.966;4.602;2023-07-20T09:19:11;3.75;;;0.77;;
41635;SDS011;27623;51.966;4.602;2023-07-20T09:21:37;3.22;;;0.75;;
41635;SDS011;27623;51.966;4.602;2023-07-20T09:24:03;3.38;;;1.08;;
41635;SDS011;27623;51.966;4.602;2023-07-20T09:26:28;3.67;;;0.80;;
41635;SDS011;27623;51.966;4.602;2023-07-20T09:28:53;2.55;;;0.85;;
41635;SDS011;27623;51.966;4.602;2023-07-20T09:31:22;3.20;;;0.70;;
41635;SDS011;27623;51.966;4.602;2023-07-20T09:33:48;2.38;;;0.70;;
41635;SDS011;27623;51.966;4.602;2023-07-20T09:36:16;2.72;;;1.17;;
41635;SDS011;27623;51.966;4.602;2023-07-20T09:38:42;3.72;;;1.38;;
41635;SDS011;27623;51.966;4.602;2023-07-20T09:41:08;2.40;;;0.95;;
41635;SDS011;27623;51.966;4.602;2023-07-20T09:43:38;1.15;;;0.70;;
41635;SDS011;27623;51.966;4.602;2023-07-20T09:46:04;1.45;;;0.68;;
41635;SDS011;27623;51.966;4.602;2023-07-20T09:48:32;1.83;;;0.80;;
41635;SDS011;27623;51.966;4.602;2023-07-20T09:50:57;3.40;;;0.80;;
41635;SDS011;27623;51.966;4.602;2023-07-20T09:53:24;1.85;;;0.80;;
41635;SDS011;27623;51.966;4.602;2023-07-20T09:55:50;2.30;;;0.60;;
41635;SDS011;27623;51.966;4.602;2023-07-20T09:58:17;1.90;;;0.73;;
41635;SDS011;27623;51.966;4.602;2023-07-20T10:00:44;2.30;;;0.98;;
41635;SDS011;27623;51.966;4.602;2023-07-20T10:03:13;3.97;;;0.70;;
41635;SDS011;27623;51.966;4.602;2023-07-20T10:05:43;5.25;;;2.03;;
41635;SDS011;27623;51.966;4.602;2023-07-20T10:08:17;2.40;;;0.73;;
41635;SDS011;27623;51.966;4.602;2023-07-20T10:10:45;0.77;;;0.40;;
41635;SDS011;27623;51.966;4.602;2023-07-20T10:13:17;3.45;;;1.00;;
41635;SDS011;27623;51.966;4.602;2023-07-20T10:15:47;1.73;;;0.85;;
41635;SDS011;27623;51.966;4.602;2023-07-20T10:21:13;3.55;;;0.82;;
41635;SDS011;27623;51.966;4.602;2023-07-20T10:23:42;2.85;;;0.95;;
41635;SDS011;27623;51.966;4.602;2023-07-20T10:26:07;3.70;;;1.00;;
41635;SDS011;27623;51.966;4.602;2023-07-20T10:28:34;3.88;;;0.80;;
41635;SDS011;27623;51.966;4.602;2023-07-20T10:30:59;4.28;;;0.75;;
41635;SDS011;27623;51.966;4.602;2023-07-20T10:33:24;4.18;;;0.93;;
41635;SDS011;27623;51.966;4.602;2023-07-20T10:35:54;3.97;;;0.90;;
41635;SDS011;27623;51.966;4.602;2023-07-20T10:38:42;2.45;;;1.00;;
41635;SDS011;27623;51.966;4.602;2023-07-20T10:41:19;2.10;;;0.90;;
41635;SDS011;27623;51.966;4.602;2023-07-20T10:43:46;2.70;;;0.88;;
41635;SDS011;27623;51.966;4.602;2023-07-20T10:46:13;1.60;;;0.80;;
41635;SDS011;27623;51.966;4.602;2023-07-20T10:51:39;2.10;;;0.90;;
41635;SDS011;27623;51.966;4.602;2023-07-20T10:56:48;1.92;;;1.00;;
41635;SDS011;27623;51.966;4.602;2023-07-20T10:59:18;2.53;;;0.68;;
41635;SDS011;27623;51.966;4.602;2023-07-20T11:01:56;5.85;;;0.90;;
41635;SDS011;27623;51.966;4.602;2023-07-20T11:04:40;2.95;;;0.90;;
41635;SDS011;27623;51.966;4.602;2023-07-20T11:07:07;3.53;;;0.82;;
41635;SDS011;27623;51.966;4.602;2023-07-20T11:09:35;2.25;;;0.80;;
41635;SDS011;27623;51.966;4.602;2023-07-20T11:14:40;1.65;;;0.60;;
41635;SDS011;27623;51.966;4.602;2023-07-20T11:17:13;2.08;;;0.80;;
41635;SDS011;27623;51.966;4.602;2023-07-20T11:19:40;2.17;;;0.80;;
41635;SDS011;27623;51.966;4.602;2023-07-20T11:22:06;1.65;;;0.60;;
41635;SDS011;27623;51.966;4.602;2023-07-20T11:24:33;1.50;;;0.65;;
41635;SDS011;27623;51.966;4.602;2023-07-20T11:26:58;3.28;;;0.65;;
41635;SDS011;27623;51.966;4.602;2023-07-20T11:29:25;1.67;;;0.60;;
41635;SDS011;27623;51.966;4.602;2023-07-20T11:31:51;1.38;;;0.50;;
41635;SDS011;27623;51.966;4.602;2023-07-20T11:34:17;1.00;;;0.52;;
41635;SDS011;27623;51.966;4.602;2023-07-20T11:36:47;2.35;;;0.65;;
41635;SDS011;27623;51.966;4.602;2023-07-20T11:39:17;3.25;;;0.50;;
41635;SDS011;27623;51.966;4.602;2023-07-20T11:41:47;1.63;;;0.73;;
41635;SDS011;27623;51.966;4.602;2023-07-20T11:44:17;2.50;;;0.60;;
41635;SDS011;27623;51.966;4.602;2023-07-20T11:46:44;1.90;;;0.70;;
41635;SDS011;27623;51.966;4.602;2023-07-20T11:49:12;2.05;;;0.82;;
41635;SDS011;27623;51.966;4.602;2023-07-20T11:51:38;1.67;;;0.50;;
41635;SDS011;27623;51.966;4.602;2023-07-20T11:54:05;1.40;;;0.65;;
41635;SDS011;27623;51.966;4.602;2023-07-20T11:56:32;1.88;;;0.45;;
41635;SDS011;27623;51.966;4.602;2023-07-20T11:58:58;1.77;;;0.55;;
41635;SDS011;27623;51.966;4.602;2023-07-20T12:01:26;1.35;;;0.70;;
41635;SDS011;27623;51.966;4.602;2023-07-20T12:04:00;0.93;;;0.50;;
41635;SDS011;27623;51.966;4.602;2023-07-20T12:06:28;1.27;;;0.63;;
41635;SDS011;27623;51.966;4.602;2023-07-20T12:08:55;1.20;;;0.50;;
41635;SDS011;27623;51.966;4.602;2023-07-20T12:11:37;2.97;;;0.85;;
41635;SDS011;27623;51.966;4.602;2023-07-20T12:14:07;1.80;;;0.60;;
41635;SDS011;27623;51.966;4.602;2023-07-20T12:16:33;1.10;;;0.40;;
41635;SDS011;27623;51.966;4.602;2023-07-20T12:19:04;1.23;;;0.50;;
41635;SDS011;27623;51.966;4.602;2023-07-20T12:21:31;1.67;;;0.70;;
41635;SDS011;27623;51.966;4.602;2023-07-20T12:23:58;1.10;;;0.60;;
41635;SDS011;27623;51.966;4.602;2023-07-20T12:26:24;1.30;;;0.43;;
41635;SDS011;27623;51.966;4.602;2023-07-20T12:28:51;2.22;;;0.70;;
41635;SDS011;27623;51.966;4.602;2023-07-20T12:31:17;0.70;;;0.40;;
41635;SDS011;27623;51.966;4.602;2023-07-20T12:33:46;1.92;;;0.70;;
41635;SDS011;27623;51.966;4.602;2023-07-20T12:36:11;2.15;;;0.77;;
41635;SDS011;27623;51.966;4.602;2023-07-20T12:38:37;4.13;;;0.60;;
41635;SDS011;27623;51.966;4.602;2023-07-20T12:41:02;1.55;;;0.60;;
41635;SDS011;27623;51.966;4.602;2023-07-20T12:43:28;2.05;;;0.60;;
41635;SDS011;27623;51.966;4.602;2023-07-20T12:45:54;2.00;;;0.50;;
41635;SDS011;27623;51.966;4.602;2023-07-20T12:48:20;1.88;;;0.70;;
41635;SDS011;27623;51.966;4.602;2023-07-20T12:50:46;1.73;;;0.60;;
41635;SDS011;27623;51.966;4.602;2023-07-20T12:53:11;3.85;;;0.60;;
41635;SDS011;27623;51.966;4.602;2023-07-20T12:55:37;1.20;;;0.60;;
41635;SDS011;27623;51.966;4.602;2023-07-20T12:58:03;1.60;;;0.60;;
41635;SDS011;27623;51.966;4.602;2023-07-20T13:00:28;1.33;;;0.50;;
41635;SDS011;27623;51.966;4.602;2023-07-20T13:02:54;3.53;;;0.60;;
41635;SDS011;27623;51.966;4.602;2023-07-20T13:05:22;2.40;;;0.55;;
41635;SDS011;27623;51.966;4.602;2023-07-20T13:07:47;1.40;;;0.50;;
41635;SDS011;27623;51.966;4.602;2023-07-20T13:10:12;2.92;;;0.63;;
41635;SDS011;27623;51.966;4.602;2023-07-20T13:12:38;1.15;;;0.50;;
41635;SDS011;27623;51.966;4.602;2023-07-20T13:15:04;0.80;;;0.50;;
41635;SDS011;27623;51.966;4.602;2023-07-20T13:17:37;1.35;;;0.60;;
41635;SDS011;27623;51.966;4.602;2023-07-20T13:20:04;1.35;;;0.50;;
41635;SDS011;27623;51.966;4.602;2023-07-20T13:22:31;4.45;;;0.68;;
41635;SDS011;27623;51.966;4.602;2023-07-20T13:24:57;3.28;;;1.25;;
41635;SDS011;27623;51.966;4.602;2023-07-20T13:27:23;2.33;;;0.73;;
41635;SDS011;27623;51.966;4.602;2023-07-20T13:29:48;3.80;;;0.60;;
41635;SDS011;27623;51.966;4.602;2023-07-20T13:32:14;2.40;;;0.60;;
41635;SDS011;27623;51.966;4.602;2023-07-20T13:34:40;1.20;;;0.50;;
41635;SDS011;27623;51.966;4.602;2023-07-20T13:37:06;2.95;;;1.20;;
41635;SDS011;27623;51.966;4.602;2023-07-20T13:39:33;3.78;;;2.15;;
41635;SDS011;27623;51.966;4.602;2023-07-20T13:41:58;2.67;;;1.00;;
41635;SDS011;27623;51.966;4.602;2023-07-20T13:44:24;2.92;;;0.82;;
41635;SDS011;27623;51.966;4.602;2023-07-20T13:46:49;1.75;;;0.75;;
41635;SDS011;27623;51.966;4.602;2023-07-20T13:49:15;0.70;;;0.40;;
41635;SDS011;27623;51.966;4.602;2023-07-20T13:51:43;1.23;;;0.70;;
41635;SDS011;27623;51.966;4.602;2023-07-20T13:54:08;2.83;;;0.68;;
41635;SDS011;27623;51.966;4.602;2023-07-20T13:56:34;0.93;;;0.45;;
41635;SDS011;27623;51.966;4.602;2023-07-20T13:59:00;2.08;;;0.57;;
41635;SDS011;27623;51.966;4.602;2023-07-20T14:01:25;1.95;;;0.40;;
41635;SDS011;27623;51.966;4.602;2023-07-20T14:03:54;1.10;;;0.40;;
41635;SDS011;27623;51.966;4.602;2023-07-20T14:06:21;2.60;;;0.60;;
41635;SDS011;27623;51.966;4.602;2023-07-20T14:08:47;0.85;;;0.40;;
41635;SDS011;27623;51.966;4.602;2023-07-20T14:11:13;1.42;;;0.50;;
41635;SDS011;27623;51.966;4.602;2023-07-20T14:13:39;2.92;;;0.40;;
41635;SDS011;27623;51.966;4.602;2023-07-20T14:16:05;1.35;;;0.32;;
41635;SDS011;27623;51.966;4.602;2023-07-20T14:18:30;1.15;;;0.30;;
41635;SDS011;27623;51.966;4.602;2023-07-20T14:20:56;1.27;;;0.43;;
41635;SDS011;27623;51.966;4.602;2023-07-20T14:23:21;1.75;;;0.40;;
41635;SDS011;27623;51.966;4.602;2023-07-20T14:25:47;0.85;;;0.40;;
41635;SDS011;27623;51.966;4.602;2023-07-20T14:28:13;1.10;;;0.65;;
41635;SDS011;27623;51.966;4.602;2023-07-20T14:30:41;0.98;;;0.47;;
41635;SDS011;27623;51.966;4.602;2023-07-20T14:33:07;0.77;;;0.38;;
41635;SDS011;27623;51.966;4.602;2023-07-20T14:35:33;0.73;;;0.30;;
41635;SDS011;27623;51.966;4.602;2023-07-20T14:38:01;1.67;;;0.22;;
41635;SDS011;27623;51.966;4.602;2023-07-20T14:40:26;0.90;;;0.30;;
41635;SDS011;27623;51.966;4.602;2023-07-20T14:42:52;1.05;;;0.40;;
41635;SDS011;27623;51.966;4.602;2023-07-20T14:45:17;1.10;;;0.22;;
41635;SDS011;27623;51.966;4.602;2023-07-20T14:47:43;1.40;;;0.40;;
41635;SDS011;27623;51.966;4.602;2023-07-20T14:50:08;0.82;;;0.30;;
41635;SDS011;27623;51.966;4.602;2023-07-20T14:52:35;1.85;;;0.40;;
41635;SDS011;27623;51.966;4.602;2023-07-20T14:55:00;1.02;;;0.40;;
41635;SDS011;27623;51.966;4.602;2023-07-20T14:57:25;2.25;;;0.50;;
41635;SDS011;27623;51.966;4.602;2023-07-20T14:59:51;3.42;;;0.20;;
41635;SDS011;27623;51.966;4.602;2023-07-20T15:02:17;1.30;;;0.40;;
41635;SDS011;27623;51.966;4.602;2023-07-20T15:04:49;0.93;;;0.20;;
41635;SDS011;27623;51.966;4.602;2023-07-20T15:07:19;0.43;;;0.32;;